Online since October of 2007


Bigbaywx more information Bigbaywx


mount mesnard more information Mount Mesnard


visit our other weather sites:

Template documentation
and downloads

And another site


CBI


earthquakes in the past 7 days

earthquakes in the past 7 days of magnitude 2.0 or greater within 15000 mi
update time = Feb 20 2024 5:32 pm

epicenter near magnitude distance to epicenter local time link
7 km N of Kukuihaele, Hawaii 2.4 0067214176 mi 1708465967Feb 20 2024 9:52 pm map
11 km ENE of Pāhala, Hawaii 2.5 0067794212 mi 1708461290Feb 20 2024 8:34 pm map
55 km S of Whites City, New Mexico 2.2 0022031369 mi 1708459244Feb 20 2024 8:00 pm map
12 km WSW of Ferndale, CA 2.2 0030071868 mi 1708457910Feb 20 2024 7:38 pm map
6 km WSW of Guánica, Puerto Rico 2.2 0037212312 mi 1708456119Feb 20 2024 7:08 pm map
4 km SW of Trapper Creek, Alaska 2.1 0041922605 mi 1708454943Feb 20 2024 6:49 pm map
15 km SW of Indian Springs, Nevada 2.4 0025841606 mi 1708454601Feb 20 2024 6:43 pm map
127 km SSW of Hihifo, Tonga 4.8 0111236911 mi 1708453669Feb 20 2024 6:27 pm map
south of the Fiji Islands 4.8 0121977579 mi 1708450378Feb 20 2024 5:32 pm map
63 km WNW of Skwentna, Alaska 2.2 0043112678 mi 1708447348Feb 20 2024 4:42 pm map
76 km SW of Yonakuni, Japan 4.4 0115887201 mi 1708445316Feb 20 2024 4:08 pm map
19 km W of Skwentna, Alaska 2.1 0042722654 mi 1708445313Feb 20 2024 4:08 pm map
7 km SSE of Maria Antonia, Puerto Rico 2.5 0037282317 mi 1708444846Feb 20 2024 4:00 pm map
59 km E of Pedro Bay, Alaska 3.0 0043792721 mi 1708442837Feb 20 2024 3:27 pm map
15 km SSE of Maria Antonia, Puerto Rico 2.6 0037362322 mi 1708442276Feb 20 2024 3:17 pm map
86 km SSE of Yonakuni, Japan 4.6 0115837197 mi 1708441949Feb 20 2024 3:12 pm map
93 km SSE of Yonakuni, Japan 5.0 0115887201 mi 1708441049Feb 20 2024 2:57 pm map
75 km SW of Yonakuni, Japan 4.5 0115897201 mi 1708438697Feb 20 2024 2:18 pm map
84 km SSE of Yonakuni, Japan 4.9 0115837197 mi 1708437387Feb 20 2024 1:56 pm map
54 km NNE of Kobuk, Alaska 2.8 0044292752 mi 1708436822Feb 20 2024 1:47 pm map
2 km W of Concord, CA 2.4 0029611840 mi 1708435333Feb 20 2024 1:22 pm map
14 km ENE of Pāhala, Hawaii 2.3 0067764210 mi 1708434086Feb 20 2024 1:01 pm map
7 km S of Guánica, Puerto Rico 2.0 0037272316 mi 1708432566Feb 20 2024 12:36 pm map
16 km SSE of Stanley, Idaho 2.5 0021321325 mi 1708432234Feb 20 2024 12:30 pm map
1 km SSE of Pāhala, Hawaii 2.3 0067914220 mi 1708429784Feb 20 2024 11:49 am map
11 km WNW of Radersburg, Montana 2.8 0018391143 mi 1708426815Feb 20 2024 11:00 am map
59 km E of Hami, China 5.1 0100526246 mi 1708426690Feb 20 2024 10:58 am map
54 km NNW of Petersville, Alaska 2.0 0042332630 mi 1708424835Feb 20 2024 10:27 am map
8 km S of Salinas, Puerto Rico 2.2 0037562334 mi 1708420701Feb 20 2024 9:18 am map
3 km SW of Pāhala, Hawaii 2.5 0067934221 mi 1708415476Feb 20 2024 7:51 am map
19 km SSE of Pāhala, Hawaii 2.2 0067944221 mi 1708415269Feb 20 2024 7:47 am map
50 km S of Silver Peak, Nevada 2.4 0026661657 mi 1708412004Feb 20 2024 6:53 am map
49 km W of Mentone, Texas 2.3 0021801355 mi 1708411886Feb 20 2024 6:51 am map
58 km S of Whites City, New Mexico 2.4 0022071371 mi 1708411737Feb 20 2024 6:48 am map
11 km SE of Smith, Nevada 2.0 0027061682 mi 1708408814Feb 20 2024 6:00 am map
12 km SE of Smith, Nevada 2.4 0027061682 mi 1708408755Feb 20 2024 5:59 am map
16 km NE of Hermleigh, Texas 2.6 0019061184 mi 1708408389Feb 20 2024 5:53 am map
7 km ENE of Tpig, Russia 4.1 0092255732 mi 1708408081Feb 20 2024 5:48 am map
17 km NE of Hermleigh, Texas 2.6 0019051184 mi 1708406817Feb 20 2024 5:26 am map
77 km NW of Sandy Ground Village, Anguilla 3.6 0038162371 mi 1708406589Feb 20 2024 5:23 am map
3 km E of San Rafael, CA 2.4 0029961862 mi 1708403473Feb 20 2024 4:31 am map
6 km SE of Pāhala, Hawaii 2.6 0067914220 mi 1708402336Feb 20 2024 4:12 am map
50 km N of Camiña, Chile 4.1 0075234674 mi 1708401120Feb 20 2024 3:52 am map
140 km SW of Abepura, Indonesia 4.5 0133988325 mi 1708400813Feb 20 2024 3:46 am map
9 km SW of Ferndale, CA 2.3 0030041867 mi 1708398078Feb 20 2024 3:01 am map
17 km NW of Turangi, New Zealand 4.1 0134838378 mi 1708397011Feb 20 2024 2:43 am map
61 km W of Petersville, Alaska 2.0 0042742656 mi 1708395424Feb 20 2024 2:17 am map
23 km WNW of Stanton, Texas 2.8 0020241258 mi 1708393760Feb 20 2024 1:49 am map
1 km NNE of Jordán, Colombia 4.6 0046602896 mi 1708393083Feb 20 2024 1:38 am map
4 km ENE of Grandin, Missouri 2.7 001131703 mi 1708392164Feb 20 2024 1:22 am map
30 km S of Padam, India 4.3 0109926830 mi 1708391159Feb 20 2024 1:05 am map
157 km ENE of Puerto Baquerizo Moreno, Ecuador 5.1 0052143240 mi 1708385180Feb 19 2024 11:26 pm map
85 km NNE of Punta Cana, Dominican Republic 3.4 0035402200 mi 1708381077Feb 19 2024 10:17 pm map
5 km NW of The Geysers, CA 2.3 0029721847 mi 1708379217Feb 19 2024 9:46 pm map
79 km NNE of Punta Cana, Dominican Republic 3.4 0035422201 mi 1708376553Feb 19 2024 9:02 pm map
3 km ESE of Falls City, Texas 3.2 0021701348 mi 1708376101Feb 19 2024 8:55 pm map
65 km ENE of Punta Cana, Dominican Republic 3.3 0035922232 mi 1708375872Feb 19 2024 8:51 pm map
16 km NE of Stanley, Idaho 2.3 0021221318 mi 1708373271Feb 19 2024 8:07 pm map
22 km SW of Hope, Alaska 3.2 0041902603 mi 1708371314Feb 19 2024 7:35 pm map
Mariana Islands region 4.7 0107866702 mi 1708370506Feb 19 2024 7:21 pm map
53 km S of Whites City, New Mexico 2.0 0022001367 mi 1708369973Feb 19 2024 7:12 pm map
3 km SW of Pāhala, Hawaii 2.6 0067934221 mi 1708369240Feb 19 2024 7:00 pm map
10 km WSW of Fall River Mills, CA 2.1 0027701721 mi 1708368522Feb 19 2024 6:48 pm map
South Sandwich Islands region 5.1 0129058019 mi 1708365711Feb 19 2024 6:01 pm map
2 km S of Pāhala, Hawaii 2.0 0067914220 mi 1708365558Feb 19 2024 5:59 pm map
1 km SW of Guánica, Puerto Rico 2.5 0037212312 mi 1708363940Feb 19 2024 5:32 pm map
4 km S of Guánica, Puerto Rico 2.0 0037242314 mi 1708363684Feb 19 2024 5:28 pm map
Kermadec Islands region 4.7 0124387729 mi 1708362469Feb 19 2024 5:07 pm map
6 km SE of Falls City, Texas 3.4 0021721350 mi 1708361846Feb 19 2024 4:57 pm map
130 km NE of Lospalos, Timor Leste 4.3 0145199021 mi 1708361155Feb 19 2024 4:45 pm map
6 km WNW of The Geysers, CA 2.1 0029741848 mi 1708359987Feb 19 2024 4:26 pm map
96 km NNW of San Antonio, Puerto Rico 3.8 0035622214 mi 1708359977Feb 19 2024 4:26 pm map
37 km SSW of Chimbote, Peru 5.1 0063013915 mi 1708359801Feb 19 2024 4:23 pm map
67 km SE of Gilgit, Pakistan 5.2 0107106655 mi 1708358719Feb 19 2024 4:05 pm map
1 km S of Adjuntas, Puerto Rico 2.2 0037112306 mi 1708357800Feb 19 2024 3:50 pm map
22 km ESE of Skwentna, Alaska 2.1 0042322630 mi 1708356801Feb 19 2024 3:33 pm map
109 km SE of Lata, Solomon Islands 4.6 0121537552 mi 1708356431Feb 19 2024 3:27 pm map
0 km ENE of Pāhala, Hawaii 2.0 0067894219 mi 1708355732Feb 19 2024 3:15 pm map
293 km ENE of Lospalos, Timor Leste 5.0 0143878940 mi 1708355334Feb 19 2024 3:08 pm map
18 km NE of Hermleigh, Texas 2.3 0019051183 mi 1708352489Feb 19 2024 2:21 pm map
72 km W of Salamatof, Alaska 2.0 0043412698 mi 1708350416Feb 19 2024 1:46 pm map
10 km WNW of Pinnacles, CA 2.0 0029831853 mi 1708346037Feb 19 2024 12:33 pm map
94 km SSW of Atka, Alaska 4.0 0059843718 mi 1708342122Feb 19 2024 11:28 am map
1 km SSE of Yauco, Puerto Rico 2.1 0037182310 mi 1708339686Feb 19 2024 10:48 am map
19 km NW of Toyah, Texas 2.0 0021951364 mi 1708337971Feb 19 2024 10:19 am map
8 km SE of Sparks, Oklahoma 2.7 001455904 mi 1708335484Feb 19 2024 9:38 am map
6 km SSW of Indios, Puerto Rico 2.3 0037272316 mi 1708335307Feb 19 2024 9:35 am map
16 km SW of Doğanşehir, Turkey 4.4 0091405679 mi 1708334603Feb 19 2024 9:23 am map
12 km WNW of Chazuta, Peru 5.1 0060283746 mi 1708332676Feb 19 2024 8:51 am map
118 km ESE of Kokopo, Papua New Guinea 5.1 0125797816 mi 1708332460Feb 19 2024 8:47 am map
4 km NW of Stanley, Idaho 2.2 0021371328 mi 1708330514Feb 19 2024 8:15 am map
6 km E of Ojai, CA 2.0 0029651842 mi 1708329842Feb 19 2024 8:04 am map
148 km W of Vallenar, Chile 4.4 0085075286 mi 1708329448Feb 19 2024 7:57 am map
114 km SSE of Akhiok, Alaska 2.7 0044902790 mi 1708328966Feb 19 2024 7:49 am map
29 km E of Coso Junction, CA 2.3 0027441705 mi 1708328602Feb 19 2024 7:43 am map
57 km S of Whites City, New Mexico 3.3 0022061371 mi 1708328259Feb 19 2024 7:37 am map
3 km SW of La Plena, Puerto Rico 2.1 0037472328 mi 1708327950Feb 19 2024 7:32 am map
25 km W of Puerto Real, Puerto Rico 3.3 0036852290 mi 1708327447Feb 19 2024 7:24 am map
1 km SW of Chucatamani, Peru 4.1 0073554570 mi 1708327075Feb 19 2024 7:17 am map
66 km ENE of Pedro Bay, Alaska 2.3 0043722716 mi 1708326694Feb 19 2024 7:11 am map
121 km S of Unalaska, Alaska 4.2 0054263372 mi 1708326242Feb 19 2024 7:04 am map
26 km NNW of San Simeon, CA 2.9 0030331885 mi 1708326215Feb 19 2024 7:03 am map
4 km S of Pāhala, Hawaii 2.3 0067934221 mi 1708326146Feb 19 2024 7:02 am map
120 km S of Unalaska, Alaska 3.6 0054253371 mi 1708326011Feb 19 2024 7:00 am map
9 km N of Santa Ana, Peru 4.9 0067564198 mi 1708323802Feb 19 2024 6:23 am map
5 km S of Salinas, Puerto Rico 2.5 0037542332 mi 1708322951Feb 19 2024 6:09 am map
7 km S of Salinas, Puerto Rico 2.4 0037552333 mi 1708322913Feb 19 2024 6:08 am map
68 km W of Palaióchora, Greece 4.4 0085805331 mi 1708322103Feb 19 2024 5:55 am map
13 km WSW of Juan Adrián, Dominican Republic 4.2 0034882167 mi 1708321929Feb 19 2024 5:52 am map
24 km SSW of Mammoth, Wyoming 2.1 0018011119 mi 1708319119Feb 19 2024 5:05 am map
3 km SSW of Pāhala, Hawaii 2.4 0067934221 mi 1708315695Feb 19 2024 4:08 am map
22 km SE of Skwentna, Alaska 2.0 0042402635 mi 1708314384Feb 19 2024 3:46 am map
8 km SW of Volcano, Hawaii 2.0 0067614201 mi 1708313344Feb 19 2024 3:29 am map
105 km ENE of Kuqa, China 4.4 0101126283 mi 1708312095Feb 19 2024 3:08 am map
39 km NNE of Chenega, Alaska 2.1 0040762532 mi 1708308042Feb 19 2024 2:00 am map
3 km SW of Indios, Puerto Rico 2.1 0037232313 mi 1708305014Feb 19 2024 1:10 am map
57 km S of Whites City, New Mexico 2.9 0022011368 mi 1708304943Feb 19 2024 1:09 am map
37 km NNE of Chenega, Alaska 2.4 0040752532 mi 1708303652Feb 19 2024 12:47 am map
12 km SE of Elliston, Montana 2.1 0018761166 mi 1708303070Feb 19 2024 12:37 am map
8 km S of Salinas, Puerto Rico 2.3 0037562334 mi 1708301041Feb 19 2024 12:04 am map
109 km SSW of Hihifo, Tonga 4.6 0111056901 mi 1708300391Feb 18 2024 11:53 pm map
40 km ESE of Chignik, Alaska 2.9 0047482950 mi 1708299120Feb 18 2024 11:32 pm map
51 km SSE of Whites City, New Mexico 2.3 0021901361 mi 1708297229Feb 18 2024 11:00 pm map
22 km S of Fern Forest, Hawaii 3.1 0067584199 mi 1708294712Feb 18 2024 10:18 pm map
2 km SW of Fuig, Puerto Rico 2.3 0037192311 mi 1708293909Feb 18 2024 10:05 pm map
24 km SSW of Mammoth, Wyoming 2.0 0018011119 mi 1708292322Feb 18 2024 9:38 pm map
12 km SW of Volcano, Hawaii 2.0 0067654204 mi 1708292247Feb 18 2024 9:37 pm map
38 km ESE of Pedro Bay, Alaska 2.2 0044012735 mi 1708291288Feb 18 2024 9:21 pm map
16 km N of Viola, CA 2.5 0027961738 mi 1708289603Feb 18 2024 8:53 pm map
33 km NNW of Claveria, Philippines 4.7 0121707562 mi 1708280566Feb 18 2024 6:22 pm map
9 km SW of Volcano, Hawaii 2.2 0067624202 mi 1708280486Feb 18 2024 6:21 pm map
7 km SW of Volcano, Hawaii 2.1 0067614201 mi 1708280486Feb 18 2024 6:21 pm map
11 km ENE of Pāhala, Hawaii 2.3 0067804213 mi 1708279624Feb 18 2024 6:07 pm map
41 km NE of Calama, Chile 4.4 0079014910 mi 1708278651Feb 18 2024 5:50 pm map
89 km WNW of Nikiski, Alaska 2.0 0043482702 mi 1708276562Feb 18 2024 5:16 pm map
3 km ENE of Rosedale, Oklahoma 2.4 001535954 mi 1708276497Feb 18 2024 5:14 pm map
36 km ENE of Ensenada, B.C., MX 2.3 0029301821 mi 1708275265Feb 18 2024 4:54 pm map
49 km W of Mentone, Texas 2.3 0021801355 mi 1708274138Feb 18 2024 4:35 pm map
40 km WNW of Clam Gulch, Alaska 2.0 0043142681 mi 1708273498Feb 18 2024 4:24 pm map
12 km NE of Pāhala, Hawaii 2.2 0067774211 mi 1708270625Feb 18 2024 3:37 pm map
52 km WNW of Nanwalek, Alaska 2.2 0043672714 mi 1708268115Feb 18 2024 2:55 pm map
21 km SSW of Nixon, Texas 2.7 0021521337 mi 1708267918Feb 18 2024 2:51 pm map
13 km SSE of Stonewall Gap, Colorado 3.3 0017891111 mi 1708267814Feb 18 2024 2:50 pm map
273 km WSW of Tual, Indonesia 4.4 0142378846 mi 1708266955Feb 18 2024 2:35 pm map
8 km S of Salinas, Puerto Rico 2.1 0037562334 mi 1708265857Feb 18 2024 2:17 pm map
16 km SE of Yosemite Valley, CA 2.1 0027841730 mi 1708264198Feb 18 2024 1:49 pm map
6 km S of Salinas, Puerto Rico 2.4 0037552333 mi 1708264058Feb 18 2024 1:47 pm map
1 km NE of Mullan, Idaho 2.1 0021191317 mi 1708262936Feb 18 2024 1:28 pm map
7 km S of Salinas, Puerto Rico 2.2 0037552333 mi 1708262171Feb 18 2024 1:16 pm map
0 km SSE of Pāhala, Hawaii 2.4 0067904219 mi 1708259488Feb 18 2024 12:31 pm map
19 km NE of Skwentna, Alaska 2.0 0042392634 mi 1708257325Feb 18 2024 11:55 am map
14 km WSW of Panikian, Philippines 4.5 0129568051 mi 1708256890Feb 18 2024 11:48 am map
22 km SW of Tyonek, Alaska 2.3 0042722654 mi 1708256269Feb 18 2024 11:37 am map
8 km S of Salinas, Puerto Rico 2.4 0037562334 mi 1708256178Feb 18 2024 11:36 am map
12 km SSE of Fern Forest, Hawaii 2.3 0067494194 mi 1708255866Feb 18 2024 11:31 am map
48 km W of Mentone, Texas 2.0 0021801355 mi 1708255280Feb 18 2024 11:21 am map
19 km SSW of Balkh, Afghanistan 5.0 0104046465 mi 1708255232Feb 18 2024 11:20 am map
3 km WSW of Pāhala, Hawaii 2.4 0067934221 mi 1708255029Feb 18 2024 11:17 am map
84 km NE of Punta Cana, Dominican Republic 3.9 0035662216 mi 1708252565Feb 18 2024 10:36 am map
6 km S of Salinas, Puerto Rico 2.4 0037552333 mi 1708250445Feb 18 2024 10:00 am map
25 km WSW of Tyonek, Alaska 2.0 0042782658 mi 1708249050Feb 18 2024 9:37 am map
114 km WNW of Aykol, China 4.4 0101216289 mi 1708246755Feb 18 2024 8:59 am map
5 km S of Salinas, Puerto Rico 2.4 0037542332 mi 1708246554Feb 18 2024 8:55 am map
2 km NE of Coco, Puerto Rico 2.4 0037472328 mi 1708245513Feb 18 2024 8:38 am map
2 km NE of Las Ochenta, Puerto Rico 2.2 0037462327 mi 1708241752Feb 18 2024 7:35 am map
5 km S of Salinas, Puerto Rico 3.0 0037532332 mi 1708241689Feb 18 2024 7:34 am map
90 km W of Hihifo, Tonga 5.6 0110766882 mi 1708241359Feb 18 2024 7:29 am map
10 km NNW of Kisarazu, Japan 4.5 0097156037 mi 1708240483Feb 18 2024 7:14 am map
7 km WNW of The Geysers, CA 2.0 0029751849 mi 1708239064Feb 18 2024 6:51 am map
1 km SW of Guayanilla, Puerto Rico 2.3 0037212312 mi 1708236765Feb 18 2024 6:12 am map
164 km WNW of Hihifo, Tonga 5.3 0110566870 mi 1708236414Feb 18 2024 6:06 am map
South Sandwich Islands region 4.9 0131168150 mi 1708236070Feb 18 2024 6:01 am map
41 km E of Yakutat, Alaska 3.3 0035972235 mi 1708234798Feb 18 2024 5:39 am map
6 km W of Petrolia, CA 3.3 0030141873 mi 1708232221Feb 18 2024 4:57 am map
11 km NNW of Meadow Lakes, Alaska 2.0 0041672589 mi 1708231685Feb 18 2024 4:48 am map
68 km ENE of Loreto, Mexico 4.5 0030491894 mi 1708231273Feb 18 2024 4:41 am map
132 km SE of Pangai, Tonga 5.0 0113757068 mi 1708230741Feb 18 2024 4:32 am map
15 km NE of Kaharoa, New Zealand 4.8 0133718308 mi 1708229349Feb 18 2024 4:09 am map
203 km NE of Lospalos, Timor Leste 4.4 0144568983 mi 1708228786Feb 18 2024 3:59 am map
12 km ENE of Pāhala, Hawaii 2.3 0067804213 mi 1708226271Feb 18 2024 3:17 am map
59 km S of Glacier View, Alaska 2.2 0040632525 mi 1708222462Feb 18 2024 2:14 am map
6 km S of Salinas, Puerto Rico 2.6 0037542333 mi 1708222108Feb 18 2024 2:08 am map
10 km ENE of Pāhala, Hawaii 2.0 0067804213 mi 1708220250Feb 18 2024 1:37 am map
66 km SSW of Whites City, New Mexico 2.0 0022171378 mi 1708218662Feb 18 2024 1:11 am map
12 km NW of Pinnacles, CA 2.2 0029821853 mi 1708218366Feb 18 2024 1:06 am map
71 km SSW of Harding-Birch Lakes, Alaska 2.0 0040272502 mi 1708217026Feb 18 2024 12:43 am map
4 km SSE of Tepetixtla, Mexico 4.8 0034812163 mi 1708214486Feb 18 2024 12:01 am map
5 km NE of Westmorland, CA 2.5 0028031742 mi 1708212304Feb 17 2024 11:25 pm map
8 km NNE of Pāhala, Hawaii 2.1 0067834215 mi 1708211721Feb 17 2024 11:15 pm map
2 km S of Parcelas Peñuelas, Puerto Rico 2.5 0037462328 mi 1708210404Feb 17 2024 10:53 pm map
6 km W of Borrego Springs, CA 2.4 0028491770 mi 1708207522Feb 17 2024 10:05 pm map
72 km SW of Ishigaki, Japan 4.5 0115517178 mi 1708206222Feb 17 2024 9:43 pm map
3 km SSW of Pāhala, Hawaii 2.8 0067934221 mi 1708205778Feb 17 2024 9:36 pm map
2 km ESE of Falls City, Texas 2.5 0021701348 mi 1708205286Feb 17 2024 9:28 pm map
12 km NNE of Stanley, Idaho 2.6 0021261321 mi 1708202108Feb 17 2024 8:35 pm map
6 km N of Yauco, Puerto Rico 2.1 0037122306 mi 1708201266Feb 17 2024 8:21 pm map
80 km W of Tyonek, Alaska 2.7 0043322692 mi 1708198279Feb 17 2024 7:31 pm map
71 km W of San Antonio de los Cobres, Argentina 4.0 0081715077 mi 1708197884Feb 17 2024 7:24 pm map
275 km N of Nagqu, China 4.1 0110416861 mi 1708196381Feb 17 2024 6:59 pm map
Fiji region 4.4 0117457298 mi 1708196289Feb 17 2024 6:58 pm map
3 km WSW of Pāhala, Hawaii 2.6 0067934221 mi 1708195739Feb 17 2024 6:48 pm map
15 km NE of Milford, Utah 2.0 0022471396 mi 1708195459Feb 17 2024 6:44 pm map
18 km WNW of Willow, Alaska 2.2 0042022611 mi 1708189070Feb 17 2024 4:57 pm map
5 km SE of Falls City, Texas 3.0 0021711349 mi 1708186761Feb 17 2024 4:19 pm map
23 km WNW of Stanley, Idaho 2.1 0021511336 mi 1708185725Feb 17 2024 4:02 pm map
14 km N of Carrizales, Puerto Rico 2.9 0036632276 mi 1708185490Feb 17 2024 3:58 pm map
3 km SSE of Falls City, Texas 2.3 0021731350 mi 1708184853Feb 17 2024 3:47 pm map
73 km NNE of Petersville, Alaska 2.0 0041932605 mi 1708184244Feb 17 2024 3:37 pm map
84 km NNE of Luquillo, Puerto Rico 3.4 0036822288 mi 1708183898Feb 17 2024 3:31 pm map
52 km WNW of Beluga, Alaska 2.0 0042912666 mi 1708182815Feb 17 2024 3:13 pm map
50 km W of Aleneva, Alaska 2.6 0044602771 mi 1708181292Feb 17 2024 2:48 pm map
24 km N of Atka, Alaska 2.0 0058863657 mi 1708181236Feb 17 2024 2:47 pm map
12 km NE of Pāhala, Hawaii 2.3 0067784212 mi 1708180163Feb 17 2024 2:29 pm map
34 km SW of Eureka, Nevada 2.4 0024491522 mi 1708178936Feb 17 2024 2:08 pm map
40 km W of Mentone, Texas 2.0 0021841357 mi 1708178028Feb 17 2024 1:53 pm map
9 km NW of Pinnacles, CA 2.6 0029801852 mi 1708175660Feb 17 2024 1:14 pm map
4 km ESE of Falls City, Texas 2.7 0021691348 mi 1708175356Feb 17 2024 1:09 pm map
10 km NW of Pinnacles, CA 2.7 0029811852 mi 1708175116Feb 17 2024 1:05 pm map
15 km NE of Milford, Utah 2.0 0022471396 mi 1708172771Feb 17 2024 12:26 pm map
13 km NE of Pāhala, Hawaii 2.2 0067774211 mi 1708171473Feb 17 2024 12:04 pm map
12 km S of Arroyo, Puerto Rico 2.1 0037722344 mi 1708171465Feb 17 2024 12:04 pm map
48 km ENE of Noda, Japan 4.7 0091515686 mi 1708170449Feb 17 2024 11:47 am map
Banda Sea 4.5 0143368908 mi 1708167098Feb 17 2024 10:51 am map
12 km E of Pāhala, Hawaii 2.1 0067804213 mi 1708166703Feb 17 2024 10:45 am map
7 km NE of Calexico, CA 2.1 0028191751 mi 1708166433Feb 17 2024 10:40 am map
34 km WNW of Anchor Point, Alaska 2.1 0043392696 mi 1708165161Feb 17 2024 10:19 am map
11 km ENE of Pāhala, Hawaii 2.2 0067804213 mi 1708161481Feb 17 2024 9:18 am map
40 km WSW of Mentone, Texas 3.8 0021851358 mi 1708161124Feb 17 2024 9:12 am map
105 km S of Puerto El Triunfo, El Salvador 4.5 0038272378 mi 1708160181Feb 17 2024 8:56 am map
24 km SSW of Glacier View, Alaska 2.3 0040742531 mi 1708157625Feb 17 2024 8:13 am map
13 km NNW of Tanaina, Alaska 2.6 0041562582 mi 1708156911Feb 17 2024 8:01 am map
1 km NE of Houston, Alaska 2.4 0041742593 mi 1708154282Feb 17 2024 7:18 am map
5 km ESE of Falls City, Texas 3.3 0021691348 mi 1708152736Feb 17 2024 6:52 am map
8 km ESE of Falls City, Texas 3.7 0021691348 mi 1708151658Feb 17 2024 6:34 am map
90 km SSE of Kuril’sk, Russia 4.7 0084945278 mi 1708151615Feb 17 2024 6:33 am map
3 km SSE of Falls City, Texas 4.7 0021721350 mi 1708151574Feb 17 2024 6:32 am map
3 km SSE of Falls City, Texas 4.4 0021721350 mi 1708150821Feb 17 2024 6:20 am map
86 km SW of Atka, Alaska 4.2 0059883721 mi 1708148801Feb 17 2024 5:46 am map
132 km E of Madang, Papua New Guinea 4.5 0130818128 mi 1708144739Feb 17 2024 4:38 am map
13 km ENE of Borrego Springs, CA 2.9 0028331760 mi 1708144635Feb 17 2024 4:37 am map
4 km SSW of Imperial, CA 2.0 0028221753 mi 1708144263Feb 17 2024 4:31 am map
3 km WSW of Ponce, Puerto Rico 2.9 0037292317 mi 1708143688Feb 17 2024 4:21 am map
13 km ENE of Falam, Myanmar 4.7 0122647620 mi 1708142123Feb 17 2024 3:55 am map
3 km SSE of Falls City, Texas 3.9 0021721350 mi 1708141744Feb 17 2024 3:49 am map
17 km NW of Rincón, Puerto Rico 3.6 0036522269 mi 1708139720Feb 17 2024 3:15 am map
4 km S of Salinas, Puerto Rico 2.2 0037532332 mi 1708139527Feb 17 2024 3:12 am map
28 km NNW of Fishhook, Alaska 2.1 0041472577 mi 1708139515Feb 17 2024 3:11 am map
90 km NNE of Tobelo, Indonesia 4.5 0135118395 mi 1708139204Feb 17 2024 3:06 am map
4 km SE of Pāhala, Hawaii 2.1 0067904219 mi 1708137919Feb 17 2024 2:45 am map
Vanuatu region 4.9 0122587617 mi 1708137759Feb 17 2024 2:42 am map
3 km SW of Pāhala, Hawaii 2.1 0067944222 mi 1708135360Feb 17 2024 2:02 am map
2 km NNW of Falls City, Texas 2.5 0021681347 mi 1708134832Feb 17 2024 1:53 am map
46 km SE of Pope-Vannoy Landing, Alaska 3.7 0044332755 mi 1708133518Feb 17 2024 1:31 am map
8 km NW of The Geysers, CA 2.2 0029731847 mi 1708133381Feb 17 2024 1:29 am map
8 km NW of The Geysers, CA 2.5 0029731848 mi 1708133376Feb 17 2024 1:29 am map
4 km S of Pāhala, Hawaii 2.0 0067934221 mi 1708132309Feb 17 2024 1:11 am map
3 km SW of Pāhala, Hawaii 2.5 0067934221 mi 1708131001Feb 17 2024 12:50 am map
15 km E of Ferry, Alaska 2.0 0041052550 mi 1708130575Feb 17 2024 12:42 am map
64 km S of Whites City, New Mexico 2.1 0022131375 mi 1708129467Feb 17 2024 12:24 am map
3 km S of Basilicanova, Italy 4.0 0070764397 mi 1708129410Feb 17 2024 12:23 am map
12 km SE of Petrolia, CA 2.1 0030051867 mi 1708128731Feb 17 2024 12:12 am map
6 km SW of Guánica, Puerto Rico 2.0 0037242314 mi 1708126985Feb 16 2024 11:43 pm map
8 km S of Orocovis, Puerto Rico 3.2 0037262315 mi 1708126587Feb 16 2024 11:36 pm map
12 km WNW of Malibu, CA 2.4 0029731847 mi 1708125927Feb 16 2024 11:25 pm map
7 km NNE of Pāhala, Hawaii 2.1 0067834215 mi 1708124703Feb 16 2024 11:05 pm map
162 km SE of Miyakojima, Japan 4.7 0114687126 mi 1708122613Feb 16 2024 10:30 pm map
13 km SE of Hidden Valley Lake, CA 2.4 0029491832 mi 1708122353Feb 16 2024 10:25 pm map
4 km WNW of Stanley, Idaho 2.6 0021381329 mi 1708117037Feb 16 2024 8:57 pm map
36 km SE of Port-Vila, Vanuatu 5.2 0124967765 mi 1708116451Feb 16 2024 8:47 pm map
14 km SSW of Falls City, Texas 2.1 0021841357 mi 1708115856Feb 16 2024 8:37 pm map
25 km ENE of Pedro Bay, Alaska 2.5 0044122742 mi 1708115405Feb 16 2024 8:30 pm map
16 km NE of Stanley, Idaho 2.4 0021221318 mi 1708114829Feb 16 2024 8:20 pm map
90 km E of Marihatag, Philippines 4.5 0129568050 mi 1708112463Feb 16 2024 7:41 pm map
45 km S of Ashkāsham, Afghanistan 4.6 0105516556 mi 1708111624Feb 16 2024 7:27 pm map
19 km N of Santa Elena, Ecuador 4.0 0054663397 mi 1708110150Feb 16 2024 7:02 pm map
11 km SSE of Pole Ojea, Puerto Rico 2.4 0037192311 mi 1708109837Feb 16 2024 6:57 pm map
256 km N of Palu, Indonesia 4.5 0140118706 mi 1708107872Feb 16 2024 6:24 pm map
9 km NE of Pāhala, Hawaii 2.2 0067804213 mi 1708107853Feb 16 2024 6:24 pm map
15 km S of Fern Forest, Hawaii 2.0 0067534196 mi 1708107283Feb 16 2024 6:14 pm map
14 km N of Snyder, Texas 2.1 0019121188 mi 1708106177Feb 16 2024 5:56 pm map
17 km WSW of Brinnon, Washington 3.5 0026571651 mi 1708101018Feb 16 2024 4:30 pm map
66 km W of Nanwalek, Alaska 2.5 0043882727 mi 1708100642Feb 16 2024 4:24 pm map
10 km ENE of Pāhala, Hawaii 2.0 0067804213 mi 1708098939Feb 16 2024 3:55 pm map
9 km E of San Felipe, Chile 4.4 0090015593 mi 1708098657Feb 16 2024 3:50 pm map
10 km SSE of Kapaau, Hawaii 2.0 0067424189 mi 1708098388Feb 16 2024 3:46 pm map
156 km SSE of Damusi, China 4.4 0106426612 mi 1708097907Feb 16 2024 3:38 pm map
270 km ESE of Chiniak, Alaska 3.0 0041722592 mi 1708097453Feb 16 2024 3:30 pm map
15 km NNE of Stanley, Idaho 2.5 0021231319 mi 1708097006Feb 16 2024 3:23 pm map
5 km NW of Glennallen, Alaska 2.2 0039522456 mi 1708097004Feb 16 2024 3:23 pm map
15 km N of Viola, CA 2.6 0027961737 mi 1708096386Feb 16 2024 3:13 pm map
210 km ESE of Onagawa Chō, Japan 4.8 0093075783 mi 1708095589Feb 16 2024 2:59 pm map
46 km ENE of Pedro Bay, Alaska 2.1 0043912729 mi 1708094514Feb 16 2024 2:41 pm map
256 km W of Tual, Indonesia 4.9 0142098829 mi 1708093413Feb 16 2024 2:23 pm map
3 km SW of Pāhala, Hawaii 2.0 0067934221 mi 1708093157Feb 16 2024 2:19 pm map
234 km NW of Houma, Tonga 4.5 0115427172 mi 1708092042Feb 16 2024 2:00 pm map
68 km NNW of Murghob, Tajikistan 4.4 0103336420 mi 1708091236Feb 16 2024 1:47 pm map
14 km NNE of Cantwell, Alaska 2.1 0041092553 mi 1708090014Feb 16 2024 1:26 pm map
19 km ENE of Chase, Alaska 2.0 0041632587 mi 1708089816Feb 16 2024 1:23 pm map
3 km SSW of Pāhala, Hawaii 2.2 0067944221 mi 1708089266Feb 16 2024 1:14 pm map
15 km S of Beaver, Utah 2.1 0022511399 mi 1708089121Feb 16 2024 1:12 pm map
31 km S of Whittier, Alaska 2.2 0041242562 mi 1708087002Feb 16 2024 12:36 pm map
3 km SE of Jauca, Puerto Rico 2.8 0037492330 mi 1708085544Feb 16 2024 12:12 pm map
55 km S of Whites City, New Mexico 2.0 0022051370 mi 1708084697Feb 16 2024 11:58 am map
29 km W of Wainaku, Hawaii 2.3 0067444190 mi 1708084468Feb 16 2024 11:54 am map
38 km SW of Skwentna, Alaska 2.1 0042832661 mi 1708083234Feb 16 2024 11:33 am map
2 km SE of Jauca, Puerto Rico 2.7 0037492329 mi 1708081991Feb 16 2024 11:13 am map
18 km SE of Pāhala, Hawaii 2.1 0067914220 mi 1708081835Feb 16 2024 11:10 am map
3 km SW of Pāhala, Hawaii 2.4 0067934221 mi 1708081816Feb 16 2024 11:10 am map
Izu Islands, Japan region 5.1 0100636253 mi 1708081262Feb 16 2024 11:01 am map
3 km ESE of Shiraoka, Japan 4.5 0096726010 mi 1708077133Feb 16 2024 9:52 am map
6 km S of San Juan Bautista, CA 2.6 0029911858 mi 1708076943Feb 16 2024 9:49 am map
67 km N of San Juan, Puerto Rico 3.2 0036492267 mi 1708076554Feb 16 2024 9:42 am map
5 km SW of Kasilof, Alaska 2.8 0042762657 mi 1708075542Feb 16 2024 9:25 am map
5 km WSW of Kasilof, Alaska 3.2 0042772658 mi 1708075386Feb 16 2024 9:23 am map
4 km SE of Jauca, Puerto Rico 2.5 0037502330 mi 1708075225Feb 16 2024 9:20 am map
8 km WSW of Mayagüez, Puerto Rico 3.1 0036862290 mi 1708074467Feb 16 2024 9:07 am map
3 km SE of Marina del Rey, CA 2.0 0029431829 mi 1708072920Feb 16 2024 8:42 am map
63 km N of Petersville, Alaska 3.1 0042142618 mi 1708072887Feb 16 2024 8:41 am map
35 km WSW of Mentone, Texas 2.2 0021841357 mi 1708072848Feb 16 2024 8:40 am map
2 km SW of Pāhala, Hawaii 2.0 0067924221 mi 1708069733Feb 16 2024 7:48 am map
3 km ESE of Ontario, CA 3.6 0028771788 mi 1708069120Feb 16 2024 7:38 am map
106 km SW of Cuya, Chile 4.8 0075744706 mi 1708064858Feb 16 2024 6:27 am map
7 km SSE of Pāhala, Hawaii 2.0 0067944221 mi 1708064228Feb 16 2024 6:17 am map
207 km NNE of Bitung, Indonesia 4.6 0135698431 mi 1708063538Feb 16 2024 6:05 am map
52 km NE of Chignik, Alaska 2.6 0047372943 mi 1708063221Feb 16 2024 6:00 am map
21 km NNW of Pāhala, Hawaii 2.2 0067834215 mi 1708061180Feb 16 2024 5:26 am map
64 km N of San Juan, Puerto Rico 3.2 0036532270 mi 1708060259Feb 16 2024 5:10 am map
17 km NE of Stanley, Idaho 2.5 0021211318 mi 1708056594Feb 16 2024 4:09 am map
6 km SSE of Salinas, Puerto Rico 2.5 0037552333 mi 1708056036Feb 16 2024 4:00 am map
22 km NW of Doğanşehir, Turkey 4.4 0091175665 mi 1708055648Feb 16 2024 3:54 am map
66 km S of Boca de Yuma, Dominican Republic 4.1 0036612275 mi 1708055230Feb 16 2024 3:47 am map
20 km SSW of Susitna, Alaska 2.1 0042212623 mi 1708053954Feb 16 2024 3:25 am map
66 km W of Tyonek, Alaska 2.4 0043182683 mi 1708053916Feb 16 2024 3:25 am map
53 km SSW of Whites City, New Mexico 2.4 0022041370 mi 1708053531Feb 16 2024 3:18 am map
39 km SW of Skwentna, Alaska 2.1 0042862663 mi 1708051711Feb 16 2024 2:48 am map
east of the Kuril Islands 4.4 0081825084 mi 1708049949Feb 16 2024 2:19 am map
37 km S of Perryville, Alaska 3.0 0048453011 mi 1708048224Feb 16 2024 1:50 am map
93 km SW of El Palmarcito, Mexico 4.0 0035762222 mi 1708047069Feb 16 2024 1:31 am map
3 km SSW of San Juan Bautista, CA 2.4 0029911859 mi 1708045924Feb 16 2024 1:12 am map
4 km SSE of Salinas, Puerto Rico 2.3 0037532332 mi 1708044271Feb 16 2024 12:44 am map
10 km SSE of Maria Antonia, Puerto Rico 2.3 0037312318 mi 1708044174Feb 16 2024 12:42 am map
7 km S of Salinas, Puerto Rico 2.0 0037552334 mi 1708042399Feb 16 2024 12:13 am map
54 km NNW of San Antonio, Puerto Rico 3.1 0036052240 mi 1708042025Feb 16 2024 12:07 am map
6 km SSE of Salinas, Puerto Rico 2.7 0037552333 mi 1708041699Feb 16 2024 12:01 am map
101 km NNW of Coquimbo, Chile 4.8 0085895337 mi 1708041575Feb 15 2024 11:59 pm map
8 km ESE of Marihatag, Philippines 4.5 0129848068 mi 1708041489Feb 15 2024 11:58 pm map
58 km NW of San Antonio, Puerto Rico 3.2 0036012238 mi 1708038554Feb 15 2024 11:09 pm map
69 km ENE of Pedro Bay, Alaska 2.3 0043722717 mi 1708038285Feb 15 2024 11:04 pm map
3 km SSW of Pāhala, Hawaii 2.1 0067934221 mi 1708035778Feb 15 2024 10:22 pm map
10 km E of Pāhala, Hawaii 2.2 0067824214 mi 1708035697Feb 15 2024 10:21 pm map
9 km NE of Pāhala, Hawaii 2.0 0067804213 mi 1708034105Feb 15 2024 9:55 pm map
53 km S of Whites City, New Mexico 2.1 0022021368 mi 1708032286Feb 15 2024 9:24 pm map
275 km ENE of Lospalos, Timor Leste 4.2 0144388972 mi 1708032257Feb 15 2024 9:24 pm map
5 km NE of Glacier View, Alaska 2.0 0040552520 mi 1708031245Feb 15 2024 9:07 pm map
13 km NNW of Chancay, Peru 5.2 0065544073 mi 1708030417Feb 15 2024 8:53 pm map
32 km E of Minto, Alaska 2.1 0040952544 mi 1708027191Feb 15 2024 7:59 pm map
4 km SW of Pāhala, Hawaii 2.0 0067954222 mi 1708024582Feb 15 2024 7:16 pm map
4 km WSW of Guánica, Puerto Rico 2.3 0037202311 mi 1708023224Feb 15 2024 6:53 pm map
2 km SSE of Marihatag, Philippines 4.6 0129848068 mi 1708023182Feb 15 2024 6:53 pm map
107 km SE of Estacion Coahuila, B.C., MX 3.7 0028421766 mi 1708021735Feb 15 2024 6:28 pm map
26 km WNW of Murindó, Colombia 4.7 0045292814 mi 1708021632Feb 15 2024 6:27 pm map
104 km SE of Petropavlovsk-Kamchatsky, Russia 4.9 0072834525 mi 1708019713Feb 15 2024 5:55 pm map
40 km E of Kitaibaraki, Japan 4.2 0095285921 mi 1708017540Feb 15 2024 5:19 pm map
9 km N of Volcano, Hawaii 2.2 0067464192 mi 1708017371Feb 15 2024 5:16 pm map
23 km WSW of Cantwell, Alaska 2.1 0041372570 mi 1708012682Feb 15 2024 3:58 pm map
54 km NNE of Chase, Alaska 2.5 0041532581 mi 1708012562Feb 15 2024 3:56 pm map
40 km SSE of Blitar, Indonesia 4.6 0153579542 mi 1708012441Feb 15 2024 3:54 pm map
4 km S of Pāhala, Hawaii 2.0 0067934221 mi 1708009159Feb 15 2024 2:59 pm map
50 km WNW of Ninilchik, Alaska 2.7 0043382696 mi 1708007384Feb 15 2024 2:29 pm map
148 km WSW of Adak, Alaska 2.5 0062073857 mi 1708006646Feb 15 2024 2:17 pm map
152 km WSW of Adak, Alaska 2.6 0062113860 mi 1708005912Feb 15 2024 2:05 pm map
3 km SW of Pāhala, Hawaii 2.4 0067944221 mi 1708005259Feb 15 2024 1:54 pm map
4 km SSW of Pāhala, Hawaii 2.0 0067934221 mi 1708004650Feb 15 2024 1:44 pm map
3 km WSW of Pāhala, Hawaii 2.4 0067934221 mi 1708004387Feb 15 2024 1:39 pm map
9 km SE of Pāhala, Hawaii 2.0 0067894218 mi 1708000304Feb 15 2024 12:31 pm map
251 km E of Levuka, Fiji 4.8 0115187157 mi 1707999675Feb 15 2024 12:21 pm map
11 km ENE of Pāhala, Hawaii 2.3 0067794213 mi 1707998633Feb 15 2024 12:03 pm map
48 km ENE of Fort Bidwell, California 2.0 0025751600 mi 1707994870Feb 15 2024 11:01 am map
4 km NE of Stevenson, Alabama 2.3 001327824 mi 1707992498Feb 15 2024 10:21 am map
46 km ESE of Atka, Alaska 2.0 0058693647 mi 1707991513Feb 15 2024 10:05 am map
132 km E of Atka, Alaska 4.1 0057973602 mi 1707991259Feb 15 2024 10:00 am map
9 km SE of La Parguera, Puerto Rico 2.0 0037232313 mi 1707989746Feb 15 2024 9:35 am map
1 km SE of Pāhala, Hawaii 2.0 0067904219 mi 1707984274Feb 15 2024 8:04 am map
19 km WSW of Volcano, Hawaii 2.2 0067704207 mi 1707984205Feb 15 2024 8:03 am map
24 km W of Volcano, Hawaii 2.3 0067724208 mi 1707983439Feb 15 2024 7:50 am map
23 km W of Volcano, Hawaii 2.3 0067714207 mi 1707983412Feb 15 2024 7:50 am map
7 km WNW of Petersville, Alaska 2.4 0042202622 mi 1707982798Feb 15 2024 7:39 am map
southeast Indian Ridge 5.0 01975812277 mi 1707981142Feb 15 2024 7:12 am map
29 km ESE of Palora, Ecuador 4.8 0054843407 mi 1707979533Feb 15 2024 6:45 am map
1 km ESE of Pāhala, Hawaii 2.2 0067904219 mi 1707979333Feb 15 2024 6:42 am map
58 km ENE of Loreto, Mexico 5.1 0030631903 mi 1707979136Feb 15 2024 6:38 am map
59 km NNW of Itoigawa, Japan 5.0 0096175976 mi 1707978582Feb 15 2024 6:29 am map
2 km NNE of Marland, Oklahoma 2.6 001375855 mi 1707977373Feb 15 2024 6:09 am map
30 km NW of Xichang, China 4.4 0116407233 mi 1707977014Feb 15 2024 6:03 am map
77 km ENE of Mutsu, Japan 4.3 0090415618 mi 1707974750Feb 15 2024 5:25 am map
25 km SE of Golfo de Santa Clara, Mexico 3.8 0028291758 mi 1707972573Feb 15 2024 4:49 am map
75 km N of San Juan, Puerto Rico 3.4 0036432264 mi 1707972481Feb 15 2024 4:48 am map
3 km ESE of Jauca, Puerto Rico 2.3 0037482329 mi 1707971322Feb 15 2024 4:28 am map
10 km ESE of Pāhala, Hawaii 2.1 0067874217 mi 1707970648Feb 15 2024 4:17 am map
11 km W of Healy, Alaska 2.2 0041252563 mi 1707970033Feb 15 2024 4:07 am map
61 km SSW of Ollagüe, Chile 4.3 0078504878 mi 1707969653Feb 15 2024 4:00 am map
115 km WNW of Aykol, China 5.0 0101366298 mi 1707969160Feb 15 2024 3:52 am map
196 km W of Ad Darb, Saudi Arabia 4.5 0111916954 mi 1707969152Feb 15 2024 3:52 am map
57 km WSW of Sado, Japan 4.8 0095835955 mi 1707968898Feb 15 2024 3:48 am map
128 km SSE of Kyzyl-Suu, Kyrgyzstan 4.5 0101366298 mi 1707968496Feb 15 2024 3:41 am map
93 km SE of Petropavlovsk-Kamchatsky, Russia 4.2 0072834526 mi 1707966574Feb 15 2024 3:09 am map
6 km W of Cobb, CA 2.1 0029721846 mi 1707964905Feb 15 2024 2:41 am map
54 km SW of Tatitlek, Alaska 2.0 0040582521 mi 1707964215Feb 15 2024 2:30 am map
11 km ENE of Pāhala, Hawaii 2.4 0067814213 mi 1707963305Feb 15 2024 2:15 am map
1 km WSW of Jagual, Puerto Rico 3.3 0037442327 mi 1707962231Feb 15 2024 1:57 am map
4 km S of Pāhala, Hawaii 2.1 0067934221 mi 1707961253Feb 15 2024 1:40 am map
73 km SW of Denali National Park, Alaska 2.1 0043152682 mi 1707960726Feb 15 2024 1:32 am map
186 km ENE of Neiafu, Tonga 5.0 0110606872 mi 1707960017Feb 15 2024 1:20 am map
1 km S of Parcelas Peñuelas, Puerto Rico 2.5 0037462328 mi 1707957599Feb 15 2024 12:39 am map
4 km E of Round Valley, CA 2.7 0027311697 mi 1707957107Feb 15 2024 12:31 am map
54 km S of Whites City, New Mexico 2.1 0022021368 mi 1707957008Feb 15 2024 12:30 am map
2 km WSW of Pāhala, Hawaii 2.4 0067934221 mi 1707956774Feb 15 2024 12:26 am map
159 km SE of Ust’-Kamchatsk Staryy, Russia 4.9 0068274242 mi 1707955825Feb 15 2024 12:10 am map
4 km S of Pāhala, Hawaii 2.2 0067924221 mi 1707955327Feb 15 2024 12:02 am map
67 km N of Chase, Alaska 2.1 0041732593 mi 1707954141Feb 14 2024 11:42 pm map
4 km S of Pāhala, Hawaii 2.1 0067934221 mi 1707953447Feb 14 2024 11:30 pm map
6 km NW of The Geysers, CA 2.3 0029731848 mi 1707953356Feb 14 2024 11:29 pm map
Pacific-Antarctic Ridge 5.2 0119687436 mi 1707953214Feb 14 2024 11:26 pm map
Kermadec Islands region 5.1 0122297599 mi 1707951889Feb 14 2024 11:04 pm map
57 km N of Petersville, Alaska 4.7 0042012610 mi 1707947017Feb 14 2024 9:43 pm map
6 km S of Salinas, Puerto Rico 2.2 0037552333 mi 1707946173Feb 14 2024 9:29 pm map
24 km ENE of Pepeekeo, Hawaii 2.6 0066924159 mi 1707946153Feb 14 2024 9:29 pm map
11 km NW of Patea, New Zealand 4.1 0136258466 mi 1707946030Feb 14 2024 9:27 pm map
122 km SE of Vilyuchinsk, Russia 4.5 0072864528 mi 1707943546Feb 14 2024 8:45 pm map
284 km NW of Houma, Tonga 4.5 0115767193 mi 1707942016Feb 14 2024 8:20 pm map
2 km WSW of Honalo, Hawaii 2.0 0068014226 mi 1707938756Feb 14 2024 7:25 pm map
9 km NNE of Redwood Valley, CA 2.0 0029731847 mi 1707938587Feb 14 2024 7:23 pm map
7 km W of Townsend, Montana 2.0 0018271135 mi 1707937495Feb 14 2024 7:04 pm map
Vanuatu region 5.8 0120627495 mi 1707937117Feb 14 2024 6:58 pm map
4 km SW of Pāhala, Hawaii 2.2 0067954222 mi 1707935603Feb 14 2024 6:33 pm map
4 km SW of Pāhala, Hawaii 2.3 0067954222 mi 1707934482Feb 14 2024 6:14 pm map
83 km N of Chickaloon, Alaska 2.5 0040932544 mi 1707934436Feb 14 2024 6:13 pm map
12 km N of Perry, Oklahoma 2.4 001401870 mi 1707933664Feb 14 2024 6:01 pm map
4 km NNW of Takizawa, Japan 4.4 0092425742 mi 1707931548Feb 14 2024 5:25 pm map
171 km NE of Lospalos, Timor Leste 4.5 0144849000 mi 1707927281Feb 14 2024 4:14 pm map
4 km W of Fuig, Puerto Rico 2.4 0037172309 mi 1707925690Feb 14 2024 3:48 pm map
18 km NE of Pāhala, Hawaii 2.1 0067724208 mi 1707923810Feb 14 2024 3:16 pm map
78 km N of Suárez, Puerto Rico 3.3 0036622276 mi 1707923237Feb 14 2024 3:07 pm map
2 km SW of Pāhala, Hawaii 2.0 0067934221 mi 1707921403Feb 14 2024 2:36 pm map
12 km NE of Pāhala, Hawaii 2.4 0067784212 mi 1707920483Feb 14 2024 2:21 pm map
15 km NE of Hermleigh, Texas 2.3 0019071185 mi 1707918548Feb 14 2024 1:49 pm map
16 km ENE of Pāhala, Hawaii 2.3 0067754210 mi 1707918419Feb 14 2024 1:46 pm map
25 km N of Mascara, Algeria 4.6 0070654390 mi 1707917621Feb 14 2024 1:33 pm map
0 km E of Pāhala, Hawaii 2.0 0067904219 mi 1707917492Feb 14 2024 1:31 pm map
10 km N of Westmorland, CA 2.0 0028021741 mi 1707915819Feb 14 2024 1:03 pm map
185 km NNE of Colonia, Micronesia 4.7 0121147527 mi 1707913484Feb 14 2024 12:24 pm map
172 km NNE of Colonia, Micronesia 6.0 0121247533 mi 1707910821Feb 14 2024 11:40 am map
11 km E of Pāhala, Hawaii 2.0 0067824214 mi 1707910415Feb 14 2024 11:33 am map
11 km NE of Pāhala, Hawaii 2.0 0067794212 mi 1707902899Feb 14 2024 9:28 am map
67 km SSE of Gorontalo, Indonesia 4.4 0140068703 mi 1707902726Feb 14 2024 9:25 am map
4 km S of Pāhala, Hawaii 2.3 0067934221 mi 1707902091Feb 14 2024 9:14 am map
13 km SE of Pāhala, Hawaii 2.2 0067884218 mi 1707901413Feb 14 2024 9:03 am map
46 km NNE of Tanana, Alaska 3.9 0042332631 mi 1707901122Feb 14 2024 8:58 am map
10 km W of Calipatria, CA 2.1 0028011741 mi 1707900769Feb 14 2024 8:52 am map
10 km W of Calipatria, CA 2.2 0028011740 mi 1707900405Feb 14 2024 8:46 am map
19 km ESE of Susitna North, Alaska 2.0 0041542581 mi 1707900063Feb 14 2024 8:41 am map
70 km ENE of Pedro Bay, Alaska 2.1 0043702715 mi 1707899956Feb 14 2024 8:39 am map
2 km SSW of Pāhala, Hawaii 2.3 0067924220 mi 1707898299Feb 14 2024 8:11 am map
10 km W of Calipatria, CA 2.1 0028011741 mi 1707898170Feb 14 2024 8:09 am map
33 km E of Hinatuan, Philippines 4.8 0130048080 mi 1707897576Feb 14 2024 7:59 am map
10 km W of Calipatria, CA 2.6 0028011740 mi 1707897381Feb 14 2024 7:56 am map
10 km W of Calipatria, CA 2.4 0028011740 mi 1707897324Feb 14 2024 7:55 am map
10 km N of Westmorland, CA 4.0 0028021741 mi 1707897193Feb 14 2024 7:53 am map
10 km N of Westmorland, CA 2.5 0028021741 mi 1707896958Feb 14 2024 7:49 am map
1 km SE of Pāhala, Hawaii 2.0 0067904219 mi 1707896000Feb 14 2024 7:33 am map
4 km NE of Sulat, Philippines 5.0 0127147900 mi 1707895275Feb 14 2024 7:21 am map
8 km NNW of Challis, Idaho 2.7 0020731288 mi 1707894598Feb 14 2024 7:09 am map
11 km NNW of Virginia City, Nevada 3.0 0027081683 mi 1707894390Feb 14 2024 7:06 am map
7 km SSE of Pāhala, Hawaii 2.1 0067944221 mi 1707894179Feb 14 2024 7:02 am map
277 km SE of Kushimoto, Japan 5.2 0101516307 mi 1707893638Feb 14 2024 6:53 am map
30 km E of Fox River, Alaska 2.1 0042332630 mi 1707892210Feb 14 2024 6:30 am map
1 km WSW of Pāhala, Hawaii 2.0 0067914220 mi 1707891920Feb 14 2024 6:25 am map
57 km S of Whites City, New Mexico 2.0 0022041369 mi 1707891456Feb 14 2024 6:17 am map
54 km S of Whites City, New Mexico 2.5 0022011368 mi 1707889836Feb 14 2024 5:50 am map
13 km WSW of Toms Place, CA 2.0 0027441705 mi 1707888781Feb 14 2024 5:33 am map
6 km WSW of Guánica, Puerto Rico 2.4 0037202312 mi 1707887837Feb 14 2024 5:17 am map
6 km WSW of Fuig, Puerto Rico 2.6 0037192311 mi 1707886661Feb 14 2024 4:57 am map
South Sandwich Islands region 5.4 0130168088 mi 1707885749Feb 14 2024 4:42 am map
2 km S of Magas Arriba, Puerto Rico 2.5 0037242314 mi 1707885595Feb 14 2024 4:39 am map
South Sandwich Islands region 5.7 0130098083 mi 1707885056Feb 14 2024 4:30 am map
3 km ESE of Laytonville, CA 2.4 0029771850 mi 1707884851Feb 14 2024 4:27 am map
8 km NNW of Challis, Idaho 2.0 0020741288 mi 1707884506Feb 14 2024 4:21 am map
South Sandwich Islands region 4.7 0130758125 mi 1707884219Feb 14 2024 4:16 am map
6 km S of Pāhala, Hawaii 2.0 0067944222 mi 1707883787Feb 14 2024 4:09 am map
17 km ESE of Bodfish, CA 2.1 0028311759 mi 1707883392Feb 14 2024 4:03 am map
31 km NNE of Chase, Alaska 2.6 0041652588 mi 1707881058Feb 14 2024 3:24 am map
5 km SSE of Pāhala, Hawaii 2.1 0067934221 mi 1707880131Feb 14 2024 3:08 am map
1 km NNW of Pāhala, Hawaii 2.2 0067904219 mi 1707875986Feb 14 2024 1:59 am map
30 km WNW of Hebgen Lake Estates, Montana 2.4 0018601155 mi 1707875127Feb 14 2024 1:45 am map
9 km NNW of Nanao, Japan 4.8 0096866018 mi 1707874373Feb 14 2024 1:32 am map
73 km WSW of Vallenar, Chile 5.8 0085675323 mi 1707874301Feb 14 2024 1:31 am map
6 km WSW of Fuig, Puerto Rico 2.2 0037192311 mi 1707872786Feb 14 2024 1:06 am map
8 km NW of Prague, Oklahoma 2.1 001457905 mi 1707869469Feb 14 2024 12:11 am map
7 km SW of Guánica, Puerto Rico 2.1 0037222313 mi 1707869453Feb 14 2024 12:10 am map
143 km NNE of Cruz Bay, U.S. Virgin Islands 3.4 0036842289 mi 1707865038Feb 13 2024 10:57 pm map
54 km S of Whites City, New Mexico 2.4 0022011368 mi 1707863562Feb 13 2024 10:32 pm map

501 earthquakes found. Click on location or map links for more details from the USGS


map and data courtesy of united states geological survey

script developed by  Saratoga-weather.org adapted for the template by  Weerstation Leuven (version 3.21)

you find our weather info also at:

Weather Underground

midwestern weather network

WeatherlinkIP

Citizen Weather Observer Program (CWOP)

equipment we use:

weather-station
Davis VP2

weather-program
Davis Weatherlink.Com

Davis VP2

Davis Weatherlink.Com